Time;durP1;ratioP1;P1;durP2;ratioP2;P2;SDS_P1;SDS_P2;PMS_P1;PMS_P2;Temp;Humidity;BMP_temperature;BMP_pressure;BME280_temperature;BME280_humidity;BME280_pressure;Samples;Min_cycle;Max_cycle;Signal;HPM_P1;HPM_P2
2022/08/18 00:00:30;;;;;;;11.50;4.53;;;19.10;99.90;;;;;;4980567;28;20038;-73
2022/08/18 00:03:04;;;;;;;9.32;5.50;;;19.10;99.90;;;;;;4975531;28;20053;-71
2022/08/18 00:05:30;;;;;;;13.20;4.47;;;19.10;99.90;;;;;;4979334;28;20101;-72
2022/08/18 00:07:56;;;;;;;7.70;4.50;;;19.10;99.90;;;;;;5007112;28;20034;-72
2022/08/18 00:10:22;;;;;;;10.18;4.47;;;19.10;99.90;;;;;;4977288;28;20031;-71
2022/08/18 00:12:48;;;;;;;8.93;5.00;;;19.10;99.90;;;;;;4976877;28;20037;-73
2022/08/18 00:15:15;;;;;;;8.00;4.63;;;19.00;99.90;;;;;;4981791;28;20157;-73
2022/08/18 00:17:41;;;;;;;7.32;4.38;;;19.00;99.90;;;;;;4983229;28;20037;-71
2022/08/18 00:20:11;;;;;;;10.15;4.43;;;19.00;99.90;;;;;;4977874;28;20503;-73
2022/08/18 00:22:40;;;;;;;11.60;4.93;;;19.00;99.90;;;;;;4975368;28;20030;-72
2022/08/18 00:25:08;;;;;;;7.68;4.13;;;18.90;99.90;;;;;;4981380;28;20053;-73
2022/08/18 00:27:36;;;;;;;8.70;4.35;;;18.90;99.90;;;;;;4980312;28;20509;-72
2022/08/18 00:30:05;;;;;;;9.05;4.20;;;18.90;99.90;;;;;;4982139;28;20034;-74
2022/08/18 00:32:37;;;;;;;7.30;4.35;;;18.80;99.90;;;;;;4985313;28;20118;-72
2022/08/18 00:35:05;;;;;;;11.07;4.95;;;18.80;99.90;;;;;;4978728;28;20046;-72
2022/08/18 00:37:32;;;;;;;7.38;4.18;;;18.80;99.90;;;;;;4975420;28;20553;-74
2022/08/18 00:39:57;;;;;;;7.90;4.95;;;18.80;99.90;;;;;;4979296;28;20066;-73
2022/08/18 00:42:26;;;;;;;10.32;4.80;;;18.70;99.90;;;;;;4981473;28;20430;-72
2022/08/18 00:44:53;;;;;;;8.75;4.82;;;18.60;99.90;;;;;;4979835;28;20113;-71
2022/08/18 00:47:19;;;;;;;7.55;5.00;;;18.70;99.90;;;;;;4978830;28;20193;-71
2022/08/18 00:49:46;;;;;;;8.43;4.15;;;18.60;99.90;;;;;;5011302;28;20129;-73
2022/08/18 00:52:13;;;;;;;10.45;5.20;;;18.60;99.90;;;;;;4978490;28;20113;-73
2022/08/18 00:54:43;;;;;;;12.13;4.07;;;18.60;99.90;;;;;;4979133;28;20041;-71
2022/08/18 00:57:09;;;;;;;10.40;4.47;;;18.60;99.90;;;;;;4975959;28;20090;-70
2022/08/18 00:59:49;;;;;;;9.68;4.88;;;18.50;99.90;;;;;;4976886;28;20034;-72
2022/08/18 01:02:20;;;;;;;11.50;4.68;;;18.50;99.90;;;;;;4976970;28;20047;-69
2022/08/18 01:05:02;;;;;;;7.93;4.75;;;18.50;99.90;;;;;;4976628;28;20046;-71
2022/08/18 01:07:38;;;;;;;11.48;4.78;;;18.50;99.90;;;;;;4978182;28;20057;-73
2022/08/18 01:10:04;;;;;;;5.97;3.92;;;18.50;99.90;;;;;;4978500;28;20026;-72
2022/08/18 01:12:30;;;;;;;11.30;6.40;;;18.40;99.90;;;;;;4974072;28;20065;-73
2022/08/18 01:14:57;;;;;;;8.80;4.60;;;18.40;99.90;;;;;;4980241;28;20050;-70
2022/08/18 01:23:11;;;;;;;8.63;5.20;;;18.40;99.90;;;;;;4976911;28;20513;-72
2022/08/18 01:28:22;;;;;;;11.75;5.10;;;18.30;99.90;;;;;;4974362;28;20034;-73
2022/08/18 01:30:59;;;;;;;8.98;5.07;;;18.30;99.90;;;;;;4980468;28;20226;-74
2022/08/18 01:33:31;;;;;;;11.02;5.05;;;18.30;99.90;;;;;;4975169;28;20514;-71
2022/08/18 01:36:18;;;;;;;9.98;4.95;;;18.30;99.90;;;;;;4976462;28;20039;-70
2022/08/18 01:38:46;;;;;;;8.05;4.93;;;18.30;99.90;;;;;;4975834;28;20084;-73
2022/08/18 01:41:12;;;;;;;9.05;4.70;;;18.30;99.90;;;;;;4973643;28;20096;-71
2022/08/18 01:43:38;;;;;;;9.27;4.72;;;18.20;99.90;;;;;;4976159;28;20038;-73
2022/08/18 01:46:04;;;;;;;9.95;5.63;;;18.20;99.90;;;;;;4974575;28;20035;-74
2022/08/18 01:48:34;;;;;;;10.48;5.28;;;18.20;99.90;;;;;;4976940;28;20840;-74
2022/08/18 01:51:02;;;;;;;14.32;6.07;;;18.20;99.90;;;;;;4973094;28;20137;-73
2022/08/18 01:53:28;;;;;;;7.70;4.72;;;18.20;99.90;;;;;;4976716;28;20088;-73
2022/08/18 01:55:54;;;;;;;9.90;5.45;;;18.20;99.90;;;;;;4977476;28;20654;-71
2022/08/18 01:58:26;;;;;;;8.27;4.85;;;18.10;99.90;;;;;;4974261;28;20149;-73
2022/08/18 02:00:57;;;;;;;8.25;5.13;;;18.10;99.90;;;;;;4976977;28;20092;-70
2022/08/18 02:03:25;;;;;;;10.73;5.40;;;18.10;99.90;;;;;;4973139;28;20027;-74
2022/08/18 02:05:56;;;;;;;9.60;5.03;;;18.10;99.90;;;;;;5009006;28;20038;-72
2022/08/18 02:08:22;;;;;;;10.23;4.45;;;18.00;99.90;;;;;;4982730;28;20031;-72
2022/08/18 02:10:47;;;;;;;7.82;4.93;;;18.00;99.90;;;;;;4985586;28;20065;-73
2022/08/18 02:13:13;;;;;;;12.82;5.53;;;18.00;99.90;;;;;;4983141;28;20030;-71
2022/08/18 02:15:39;;;;;;;9.18;5.13;;;18.00;99.90;;;;;;4990339;28;20515;-72
2022/08/18 02:18:04;;;;;;;9.48;5.63;;;18.00;99.90;;;;;;4984988;28;20042;-73
2022/08/18 02:20:31;;;;;;;10.45;5.63;;;18.00;99.90;;;;;;4986799;28;20081;-72
2022/08/18 02:22:57;;;;;;;10.13;5.80;;;18.00;99.90;;;;;;4979750;28;20049;-72
2022/08/18 02:25:23;;;;;;;8.52;5.38;;;18.10;99.90;;;;;;4982661;28;20030;-73
2022/08/18 02:27:49;;;;;;;11.85;6.22;;;18.10;99.90;;;;;;4979506;28;20034;-73
2022/08/18 02:30:17;;;;;;;12.55;5.88;;;18.10;99.90;;;;;;4978734;28;20109;-74
2022/08/18 02:32:43;;;;;;;11.43;6.00;;;18.10;99.90;;;;;;4989030;28;20069;-70
2022/08/18 02:35:10;;;;;;;13.48;6.90;;;18.10;99.90;;;;;;4984279;28;20063;-73
2022/08/18 02:37:36;;;;;;;15.02;6.70;;;18.20;99.90;;;;;;4979982;28;20077;-72
2022/08/18 02:40:03;;;;;;;13.18;7.22;;;18.20;99.90;;;;;;4976797;28;20035;-73
2022/08/18 02:42:29;;;;;;;12.75;7.30;;;18.20;99.90;;;;;;4979449;28;20057;-74
2022/08/18 02:44:55;;;;;;;10.77;6.45;;;18.20;99.90;;;;;;4975866;28;20101;-72
2022/08/18 02:47:21;;;;;;;14.60;7.38;;;18.20;99.90;;;;;;4982280;28;20086;-72
2022/08/18 02:49:47;;;;;;;12.43;6.80;;;18.30;99.90;;;;;;4980733;28;20062;-72
2022/08/18 02:52:14;;;;;;;16.23;7.57;;;18.20;99.90;;;;;;4985455;28;20043;-71
2022/08/18 02:54:39;;;;;;;10.82;6.90;;;18.20;99.90;;;;;;4983998;28;20034;-70
2022/08/18 02:57:09;;;;;;;13.60;7.88;;;18.20;99.90;;;;;;4978059;28;20034;-70
2022/08/18 02:59:37;;;;;;;12.52;6.80;;;18.30;99.90;;;;;;4978634;28;20475;-70
2022/08/18 03:02:04;;;;;;;14.90;7.50;;;18.20;99.90;;;;;;4978889;28;20037;-70
2022/08/18 03:04:30;;;;;;;12.63;8.10;;;18.30;99.90;;;;;;4979839;28;20117;-70
2022/08/18 03:06:59;;;;;;;14.10;7.72;;;18.20;99.90;;;;;;4975813;28;20125;-70
2022/08/18 03:09:25;;;;;;;14.18;7.78;;;18.20;99.90;;;;;;4980034;28;20380;-70
2022/08/18 03:11:51;;;;;;;16.65;8.20;;;18.20;99.90;;;;;;4977828;28;20081;-71
2022/08/18 03:14:17;;;;;;;14.13;8.07;;;18.20;99.90;;;;;;4978770;28;20050;-71
2022/08/18 03:16:45;;;;;;;11.55;7.38;;;18.10;99.90;;;;;;5009485;28;20510;-69
2022/08/18 03:19:13;;;;;;;12.15;7.97;;;18.10;99.90;;;;;;4977325;28;20031;-73
2022/08/18 03:21:39;;;;;;;14.95;8.13;;;18.10;99.90;;;;;;4978802;28;20030;-70
2022/08/18 03:24:05;;;;;;;11.45;7.30;;;18.00;99.90;;;;;;4976830;28;20469;-70
2022/08/18 03:26:32;;;;;;;14.18;7.47;;;18.00;99.90;;;;;;4981423;28;20058;-70
2022/08/18 03:28:59;;;;;;;11.65;7.03;;;18.00;99.90;;;;;;4979451;28;20541;-69
2022/08/18 03:31:27;;;;;;;13.90;7.57;;;18.00;99.90;;;;;;4988108;28;20125;-71
2022/08/18 03:33:54;;;;;;;11.05;6.82;;;17.90;99.90;;;;;;5009682;28;20042;-69
2022/08/18 03:36:25;;;;;;;10.23;6.60;;;17.90;99.90;;;;;;4985752;28;20030;-70
2022/08/18 03:38:53;;;;;;;12.23;6.75;;;17.90;99.90;;;;;;4986171;28;20046;-70
2022/08/18 03:41:22;;;;;;;12.77;6.45;;;17.90;99.90;;;;;;4988548;28;20031;-70
2022/08/18 03:43:49;;;;;;;13.67;7.13;;;17.90;99.90;;;;;;4981015;28;20034;-68
2022/08/18 03:46:17;;;;;;;12.55;6.57;;;17.90;99.90;;;;;;4976336;28;20038;-71
2022/08/18 03:48:45;;;;;;;10.75;6.18;;;17.90;99.90;;;;;;4983070;28;20031;-69
2022/08/18 03:51:17;;;;;;;10.20;6.15;;;17.90;99.90;;;;;;4978449;28;20077;-71
2022/08/18 03:53:44;;;;;;;9.38;5.20;;;17.90;99.90;;;;;;4977157;28;20039;-71
2022/08/18 03:56:15;;;;;;;12.75;5.65;;;17.90;99.90;;;;;;4978555;28;20121;-72
2022/08/18 03:58:53;;;;;;;12.05;5.75;;;17.90;99.90;;;;;;4979628;28;20034;-70
2022/08/18 04:01:23;;;;;;;9.10;5.57;;;18.00;99.90;;;;;;4982869;28;20046;-72
2022/08/18 04:03:55;;;;;;;7.10;5.15;;;17.90;99.90;;;;;;4988428;28;20098;-70
2022/08/18 04:06:24;;;;;;;12.88;6.20;;;18.00;99.90;;;;;;4989562;28;20046;-72
2022/08/18 04:08:55;;;;;;;9.82;6.20;;;17.90;99.90;;;;;;4985013;28;20030;-70
2022/08/18 04:11:22;;;;;;;8.85;6.28;;;17.90;99.90;;;;;;4979562;28;20034;-72
2022/08/18 04:13:48;;;;;;;10.52;6.53;;;17.90;99.90;;;;;;4976233;28;20035;-72
2022/08/18 04:16:14;;;;;;;12.55;6.05;;;17.90;99.90;;;;;;4978601;28;20046;-71
2022/08/18 04:18:39;;;;;;;13.45;6.63;;;17.80;99.90;;;;;;4978115;28;20039;-72
2022/08/18 04:21:08;;;;;;;10.68;6.10;;;17.80;99.90;;;;;;4977680;28;20173;-73
2022/08/18 04:23:35;;;;;;;10.85;6.20;;;17.80;99.90;;;;;;4977513;28;20568;-71
2022/08/18 04:26:01;;;;;;;9.43;5.70;;;17.80;99.90;;;;;;4979145;28;20081;-69
2022/08/18 04:28:27;;;;;;;12.93;6.47;;;17.80;99.90;;;;;;4976992;28;20066;-72
2022/08/18 04:30:58;;;;;;;11.35;6.43;;;17.80;99.90;;;;;;4980077;28;20038;-71
2022/08/18 04:33:27;;;;;;;;;;;17.70;99.90;;;;;;5009525;28;20091;-72
2022/08/18 04:35:53;;;;;;;8.98;5.85;;;17.70;99.90;;;;;;4976491;28;19918;-72
2022/08/18 04:38:20;;;;;;;12.15;6.10;;;17.70;99.90;;;;;;4979031;28;20053;-71
2022/08/18 04:40:46;;;;;;;12.00;7.07;;;17.70;99.90;;;;;;4975974;28;20026;-70
2022/08/18 04:43:14;;;;;;;14.13;7.13;;;17.70;99.90;;;;;;4977289;28;20034;-72
2022/08/18 04:45:45;;;;;;;11.73;6.82;;;17.70;99.90;;;;;;4982573;28;20034;-71
2022/08/18 04:48:11;;;;;;;13.23;6.55;;;17.70;99.90;;;;;;4983284;28;20035;-71
2022/08/18 04:50:37;;;;;;;12.23;6.75;;;17.70;99.90;;;;;;4985593;28;20030;-72
2022/08/18 04:55:50;;;;;;;10.57;6.38;;;17.70;99.90;;;;;;4978882;28;20546;-71
2022/08/18 04:58:17;;;;;;;12.60;6.53;;;17.70;99.90;;;;;;4978023;28;20033;-70
2022/08/18 05:00:44;;;;;;;13.43;6.43;;;17.70;99.90;;;;;;4992908;28;20030;-71
2022/08/18 05:03:10;;;;;;;17.42;7.05;;;17.70;99.90;;;;;;4985186;28;20061;-70
2022/08/18 05:05:36;;;;;;;13.02;6.93;;;17.70;99.90;;;;;;4987880;28;20435;-71
2022/08/18 05:08:01;;;;;;;14.50;7.03;;;17.70;99.90;;;;;;4982566;28;20035;-69
2022/08/18 05:10:27;;;;;;;12.40;6.85;;;17.70;99.90;;;;;;4983153;28;20145;-72
2022/08/18 05:12:53;;;;;;;12.15;7.30;;;17.70;99.90;;;;;;4982505;28;20531;-71
2022/08/18 05:15:19;;;;;;;15.05;7.72;;;17.70;99.90;;;;;;4980270;28;20109;-71
2022/08/18 05:17:44;;;;;;;12.38;6.90;;;17.80;99.90;;;;;;4984131;28;20030;-71
2022/08/18 05:20:10;;;;;;;12.30;6.68;;;17.80;99.90;;;;;;5011986;28;20034;-72
2022/08/18 05:22:40;;;;;;;10.80;6.28;;;17.80;99.90;;;;;;4984031;28;20046;-71
2022/08/18 05:25:09;;;;;;;12.02;6.60;;;17.80;99.90;;;;;;4981081;28;20179;-70
2022/08/18 05:27:40;;;;;;;13.88;7.60;;;17.90;99.90;;;;;;4983083;28;21000;-70
2022/08/18 05:30:07;;;;;;;13.63;6.53;;;17.90;99.90;;;;;;4983353;28;20502;-71
2022/08/18 05:32:41;;;;;;;9.50;5.45;;;17.90;99.90;;;;;;4980561;28;20034;-70
2022/08/18 05:35:13;;;;;;;12.82;6.68;;;17.90;99.90;;;;;;4981088;28;20042;-71
2022/08/18 05:37:55;;;;;;;10.90;6.30;;;17.90;99.90;;;;;;4982105;28;20034;-71
2022/08/18 05:40:23;;;;;;;14.73;6.43;;;18.00;99.90;;;;;;4981199;28;20045;-71
2022/08/18 05:42:50;;;;;;;13.18;6.60;;;18.00;99.90;;;;;;4984360;28;20034;-71
2022/08/18 05:45:18;;;;;;;12.90;6.40;;;18.00;99.90;;;;;;4982127;28;20038;-71
2022/08/18 05:47:44;;;;;;;8.63;5.75;;;18.00;99.90;;;;;;4986672;28;20089;-72
2022/08/18 05:50:19;;;;;;;10.25;6.30;;;18.10;99.90;;;;;;4990503;28;20133;-71
2022/08/18 05:52:58;;;;;;;12.27;6.05;;;18.10;99.90;;;;;;5019123;28;20045;-72
2022/08/18 05:58:31;;;;;;;8.45;5.15;;;18.20;99.90;;;;;;4983028;28;20112;-71
2022/08/18 06:01:02;;;;;;;10.70;5.72;;;18.30;99.90;;;;;;4983568;28;20565;-71
2022/08/18 06:03:33;;;;;;;;;;;18.30;99.90;;;;;;4979211;28;20141;-71
2022/08/18 06:06:01;;;;;;;7.53;4.70;;;18.50;99.90;;;;;;4980662;28;19927;-69
2022/08/18 06:08:52;;;;;;;9.55;4.78;;;18.50;99.90;;;;;;5015160;28;20046;-72
2022/08/18 06:11:18;;;;;;;7.57;4.82;;;18.60;99.90;;;;;;4979755;28;20050;-71
2022/08/18 06:13:43;;;;;;;6.43;4.10;;;18.70;99.90;;;;;;4981371;28;20043;-71
2022/08/18 06:16:26;;;;;;;8.23;4.65;;;18.80;99.90;;;;;;4979810;28;20038;-71
2022/08/18 06:19:17;;;;;;;9.60;4.47;;;18.90;99.90;;;;;;4982293;28;20138;-72
2022/08/18 06:22:07;;;;;;;8.75;4.60;;;19.00;99.90;;;;;;4980824;28;20043;-71
2022/08/18 06:25:01;;;;;;;6.00;3.38;;;19.10;99.90;;;;;;4981546;28;20073;-69
2022/08/18 06:27:39;;;;;;;9.30;4.57;;;19.30;99.90;;;;;;4980231;28;20038;-71
2022/08/18 06:30:35;;;;;;;6.05;3.60;;;19.50;99.90;;;;;;4981869;28;20038;-73
2022/08/18 06:33:28;;;;;;;5.68;3.38;;;19.70;99.90;;;;;;4978207;28;20075;-71
2022/08/18 06:36:01;;;;;;;4.28;2.92;;;20.00;99.90;;;;;;4982122;28;20046;-70
2022/08/18 06:38:55;;;;;;;5.45;2.55;;;20.60;99.90;;;;;;4980707;28;20034;-72
2022/08/18 06:41:40;;;;;;;4.78;2.47;;;21.50;99.90;;;;;;4979837;28;20395;-70
2022/08/18 06:44:10;;;;;;;3.20;1.90;;;22.60;99.90;;;;;;4980933;28;20031;-73
2022/08/18 06:47:14;;;;;;;5.22;2.63;;;23.80;99.90;;;;;;4983997;28;20049;-71
2022/08/18 06:50:03;;;;;;;12.57;2.35;;;25.00;99.90;;;;;;5011748;28;20511;-70
2022/08/18 06:52:36;;;;;;;5.28;2.20;;;26.00;99.90;;;;;;4980052;28;20805;-70
2022/08/18 06:55:10;;;;;;;2.95;1.55;;;27.00;99.90;;;;;;4980542;28;20065;-72
2022/08/18 06:57:56;;;;;;;3.78;1.38;;;27.70;99.90;;;;;;4981590;28;20121;-72
2022/08/18 07:00:25;;;;;;;3.08;1.67;;;28.20;99.90;;;;;;4980770;28;20491;-71
2022/08/18 07:03:08;;;;;;;3.35;2.10;;;28.60;99.90;;;;;;4980275;28;20052;-72
2022/08/18 07:05:35;;;;;;;4.05;2.15;;;28.70;99.90;;;;;;4982681;28;20030;-73
2022/08/18 07:08:13;;;;;;;5.95;1.55;;;28.80;99.90;;;;;;4984881;28;20049;-71
2022/08/18 07:10:42;;;;;;;3.40;1.50;;;29.10;99.80;;;;;;4983595;28;20034;-72
2022/08/18 07:13:16;;;;;;;5.13;2.35;;;29.10;99.60;;;;;;4982008;28;20034;-72
2022/08/18 07:15:47;;;;;;;4.50;2.03;;;28.90;99.20;;;;;;5013545;28;20035;-73
2022/08/18 07:18:16;;;;;;;4.78;1.80;;;28.70;99.10;;;;;;4984432;28;20065;-70
2022/08/18 07:20:52;;;;;;;2.88;1.67;;;28.20;99.40;;;;;;4985885;28;20112;-73
2022/08/18 07:23:38;;;;;;;5.25;1.40;;;27.60;99.80;;;;;;4984588;28;20043;-71
2022/08/18 07:26:11;;;;;;;2.92;1.38;;;26.70;99.90;;;;;;4984245;28;20585;-70
2022/08/18 07:28:42;;;;;;;4.05;1.25;;;26.10;99.90;;;;;;4983548;28;20372;-72
2022/08/18 07:31:13;;;;;;;4.75;1.63;;;25.40;99.90;;;;;;4981477;28;20101;-71
2022/08/18 07:33:42;;;;;;;4.00;1.27;;;24.70;99.90;;;;;;5012044;28;20117;-72
2022/08/18 07:36:09;;;;;;;7.00;1.33;;;24.00;99.90;;;;;;4982210;28;20034;-71
2022/08/18 07:38:41;;;;;;;2.88;1.33;;;23.60;99.90;;;;;;4983965;28;20274;-72
2022/08/18 07:41:27;;;;;;;3.75;1.50;;;23.30;99.90;;;;;;4981545;28;20419;-72
2022/08/18 07:44:04;;;;;;;3.40;1.80;;;23.10;99.90;;;;;;4982244;28;20201;-72
2022/08/18 07:46:42;;;;;;;3.67;1.63;;;23.00;99.90;;;;;;4984815;28;20042;-73
2022/08/18 07:49:09;;;;;;;3.63;2.10;;;23.00;99.90;;;;;;4983682;28;20038;-72
2022/08/18 07:51:49;;;;;;;3.88;1.92;;;23.00;99.90;;;;;;4985473;28;20085;-70
2022/08/18 07:54:38;;;;;;;4.18;1.85;;;23.00;99.90;;;;;;4980559;28;20066;-70
2022/08/18 07:57:23;;;;;;;2.60;1.60;;;23.00;99.90;;;;;;4981984;28;20039;-71
2022/08/18 08:00:08;;;;;;;3.58;1.70;;;23.00;99.90;;;;;;4982689;28;20030;-71
2022/08/18 08:03:11;;;;;;;3.78;1.40;;;23.00;99.90;;;;;;4982540;28;20397;-72
2022/08/18 08:06:01;;;;;;;3.72;1.85;;;22.80;99.90;;;;;;4982063;28;20042;-72
2022/08/18 08:08:48;;;;;;;4.80;1.60;;;22.60;99.90;;;;;;4982499;28;20073;-71
2022/08/18 08:11:37;;;;;;;4.82;2.35;;;22.50;99.90;;;;;;4980436;28;20036;-72
2022/08/18 08:14:16;;;;;;;3.60;2.15;;;22.60;99.90;;;;;;4981055;28;20034;-72
2022/08/18 08:16:59;;;;;;;3.58;1.92;;;22.50;99.90;;;;;;4982371;28;20038;-69
2022/08/18 08:19:39;;;;;;;4.72;1.95;;;22.50;99.90;;;;;;4983990;28;20045;-72
2022/08/18 08:22:10;;;;;;;4.97;2.15;;;22.50;99.90;;;;;;4979710;28;20026;-72
2022/08/18 08:24:54;;;;;;;2.10;1.30;;;22.40;99.90;;;;;;4982409;28;20034;-70
2022/08/18 08:27:47;;;;;;;2.03;1.65;;;22.40;99.90;;;;;;4982202;28;20038;-73
2022/08/18 08:30:17;;;;;;;2.17;1.38;;;22.50;99.90;;;;;;4982589;28;20577;-73
2022/08/18 08:33:11;;;;;;;2.53;1.52;;;22.80;99.90;;;;;;4982250;28;20460;-70
2022/08/18 08:36:00;;;;;;;3.42;1.77;;;22.80;99.90;;;;;;4979128;28;20043;-71
2022/08/18 08:38:40;;;;;;;1.42;1.20;;;22.80;99.90;;;;;;4980994;28;20066;-72
2022/08/18 08:41:18;;;;;;;3.47;1.88;;;22.70;99.90;;;;;;4981338;28;20491;-72
2022/08/18 08:43:55;;;;;;;3.13;1.77;;;22.80;99.90;;;;;;4982676;28;20113;-69
2022/08/18 08:46:28;;;;;;;4.43;1.95;;;22.70;99.90;;;;;;4981535;28;20133;-72
2022/08/18 08:49:08;;;;;;;4.47;1.88;;;22.60;99.90;;;;;;4980741;28;20050;-70
2022/08/18 08:51:41;;;;;;;2.88;1.55;;;22.60;99.90;;;;;;4982174;28;20093;-71
2022/08/18 08:54:18;;;;;;;6.10;1.67;;;22.60;99.90;;;;;;4979508;28;20030;-71
2022/08/18 08:56:46;;;;;;;3.03;1.52;;;22.70;99.90;;;;;;4984267;28;20034;-70
2022/08/18 08:59:16;;;;;;;3.20;1.23;;;22.70;99.90;;;;;;4982169;28;20180;-71
2022/08/18 09:01:50;;;;;;;2.45;1.33;;;22.60;99.90;;;;;;4981087;28;20037;-73
2022/08/18 09:04:37;;;;;;;3.42;1.50;;;22.50;99.90;;;;;;4979803;28;20805;-72
2022/08/18 09:07:40;;;;;;;3.70;1.05;;;22.60;99.90;;;;;;4982263;28;20042;-70
2022/08/18 09:10:18;;;;;;;2.22;1.02;;;22.80;99.90;;;;;;4978529;28;20093;-70
2022/08/18 09:13:08;;;;;;;4.70;1.00;;;23.10;99.90;;;;;;4979752;28;20510;-71
2022/08/18 09:15:37;;;;;;;3.30;1.48;;;23.30;99.90;;;;;;4981167;28;20038;-69
2022/08/18 09:18:33;;;;;;;15.88;1.63;;;23.20;99.90;;;;;;4980930;28;20403;-71
2022/08/18 09:21:28;;;;;;;1.67;1.00;;;23.30;99.90;;;;;;4969367;28;20046;-70
2022/08/18 09:24:17;;;;;;;1.80;1.30;;;23.50;99.90;;;;;;4959615;28;20129;-72
2022/08/18 09:26:51;;;;;;;3.42;1.52;;;23.80;99.90;;;;;;4961650;28;20100;-71
2022/08/18 09:29:26;;;;;;;3.75;1.60;;;24.20;99.90;;;;;;4960456;28;20057;-70
2022/08/18 09:32:19;;;;;;;3.72;1.98;;;24.30;99.90;;;;;;4958416;28;20393;-70
2022/08/18 09:35:00;;;;;;;4.50;1.83;;;24.20;99.90;;;;;;4957819;28;20597;-70
2022/08/18 09:37:47;;;;;;;9.60;2.05;;;23.90;99.90;;;;;;4957372;28;20043;-72
2022/08/18 09:43:29;;;;;;;2.22;1.52;;;23.20;99.90;;;;;;4959466;28;20459;-72
2022/08/18 09:45:58;;;;;;;2.50;1.00;;;23.00;99.90;;;;;;4959053;28;20043;-69
2022/08/18 09:48:28;;;;;;;2.30;1.10;;;23.10;99.90;;;;;;4959473;28;20034;-71
2022/08/18 09:51:14;;;;;;;4.70;1.00;;;23.20;99.90;;;;;;4958790;28;20043;-71
2022/08/18 09:53:46;;;;;;;2.00;1.60;;;23.40;99.90;;;;;;4958182;28;20037;-71
2022/08/18 09:56:14;;;;;;;2.63;1.10;;;23.70;99.90;;;;;;4989421;28;20054;-70
2022/08/18 09:58:49;;;;;;;4.63;1.33;;;23.90;99.90;;;;;;4961168;28;20062;-71
2022/08/18 10:01:31;;;;;;;2.55;1.27;;;24.20;99.90;;;;;;4958966;28;20137;-72
2022/08/18 10:04:18;;;;;;;3.55;1.27;;;24.40;99.90;;;;;;4961461;28;20051;-72
2022/08/18 10:06:47;;;;;;;6.15;2.00;;;24.70;99.90;;;;;;4962760;28;20039;-71
2022/08/18 10:09:25;;;;;;;1.60;1.20;;;24.80;99.90;;;;;;4964064;28;20035;-70
2022/08/18 10:12:15;;;;;;;3.33;1.38;;;24.80;99.90;;;;;;4964910;28;20031;-71
2022/08/18 10:14:52;;;;;;;1.05;0.80;;;24.80;99.90;;;;;;4958334;28;20281;-70
2022/08/18 10:17:45;;;;;;;4.55;1.15;;;24.60;99.90;;;;;;4960086;28;20499;-71
2022/08/18 10:20:23;;;;;;;3.28;1.33;;;24.40;99.90;;;;;;4957847;28;20046;-70
2022/08/18 10:22:49;;;;;;;2.00;1.15;;;24.50;99.90;;;;;;4959004;28;20507;-72
2022/08/18 10:25:33;;;;;;;1.60;0.80;;;24.60;99.90;;;;;;4966139;28;20054;-70
2022/08/18 10:28:04;;;;;;;1.25;1.08;;;24.70;99.90;;;;;;4954781;28;20863;-71
2022/08/18 10:30:35;;;;;;;2.17;1.00;;;24.90;99.90;;;;;;4959940;28;20238;-70
2022/08/18 10:33:07;;;;;;;2.30;1.30;;;25.00;99.90;;;;;;4960234;28;20046;-71
2022/08/18 10:35:35;;;;;;;1.83;1.00;;;25.00;99.90;;;;;;4958669;28;20034;-71
2022/08/18 10:38:20;;;;;;;2.75;1.40;;;25.10;99.90;;;;;;4959616;28;20038;-69
2022/08/18 10:41:20;;;;;;;7.82;1.30;;;25.00;99.90;;;;;;4962378;28;20146;-71
2022/08/18 10:43:49;;;;;;;3.60;1.27;;;24.90;99.90;;;;;;4964437;28;20594;-72
2022/08/18 10:46:32;;;;;;;2.50;1.35;;;24.70;99.90;;;;;;4970821;28;20042;-71
2022/08/18 10:49:11;;;;;;;3.33;1.38;;;24.50;99.90;;;;;;4978550;28;20524;-69
2022/08/18 10:51:57;;;;;;;1.85;1.13;;;24.10;99.90;;;;;;4980099;28;20038;-70
2022/08/18 10:54:55;;;;;;;3.40;1.27;;;24.10;99.90;;;;;;4979933;28;20117;-71
2022/08/18 10:57:49;;;;;;;2.17;1.17;;;24.20;99.90;;;;;;4976247;28;20038;-69
2022/08/18 11:00:19;;;;;;;2.25;1.00;;;24.60;99.90;;;;;;4980673;28;20039;-69
2022/08/18 11:02:51;;;;;;;2.72;0.98;;;24.90;99.90;;;;;;4981887;28;20902;-72
2022/08/18 11:05:21;;;;;;;1.83;0.75;;;25.20;99.90;;;;;;4982563;28;20066;-72
2022/08/18 11:07:48;;;;;;;2.33;0.98;;;25.50;99.90;;;;;;4983811;28;20137;-71
2022/08/18 11:10:21;;;;;;;2.08;0.95;;;25.70;99.90;;;;;;4983184;28;20038;-70
2022/08/18 11:13:12;;;;;;;3.13;1.00;;;25.70;99.90;;;;;;4983033;28;20039;-70
2022/08/18 11:16:02;;;;;;;3.33;1.42;;;25.70;99.90;;;;;;4982165;28;20046;-70
2022/08/18 11:18:34;;;;;;;1.30;1.00;;;25.70;99.90;;;;;;4983610;28;20494;-72
2022/08/18 11:21:42;;;;;;;1.73;0.75;;;25.60;99.90;;;;;;4979769;28;20047;-72
2022/08/18 11:24:22;;;;;;;1.52;0.73;;;25.50;99.90;;;;;;4980638;28;20125;-73
2022/08/18 11:26:50;;;;;;;1.50;1.00;;;25.60;99.90;;;;;;4985078;28;20035;-71
2022/08/18 11:29:25;;;;;;;1.60;0.63;;;25.60;99.90;;;;;;4982447;28;20038;-72
2022/08/18 11:32:22;;;;;;;2.60;1.10;;;25.60;99.90;;;;;;4983640;28;20422;-69
2022/08/18 11:34:51;;;;;;;1.30;1.00;;;25.50;99.90;;;;;;4967963;28;20035;-73
2022/08/18 11:37:38;;;;;;;2.80;0.60;;;25.40;99.90;;;;;;4963395;28;20459;-71
2022/08/18 11:40:17;;;;;;;1.33;0.68;;;25.40;99.90;;;;;;4964349;28;20042;-70
2022/08/18 11:43:00;;;;;;;2.10;0.70;;;25.60;99.90;;;;;;4964423;28;20034;-72
2022/08/18 11:45:46;;;;;;;1.08;0.80;;;25.70;99.90;;;;;;4964650;28;20483;-72
2022/08/18 11:48:26;;;;;;;0.77;0.68;;;25.80;99.90;;;;;;4961688;28;20051;-72
2022/08/18 11:50:55;;;;;;;1.65;0.70;;;25.80;99.90;;;;;;4959552;28;20130;-69
2022/08/18 11:53:45;;;;;;;3.50;0.70;;;25.80;99.90;;;;;;4961953;28;20034;-70
2022/08/18 11:56:14;;;;;;;1.73;0.80;;;25.90;99.90;;;;;;4964560;28;20048;-74
2022/08/18 11:58:56;;;;;;;1.02;0.45;;;25.90;99.90;;;;;;4964148;28;20042;-72
2022/08/18 12:01:53;;;;;;;3.60;0.60;;;25.80;99.10;;;;;;4961843;28;20157;-73
2022/08/18 12:04:19;;;;;;;2.00;0.73;;;25.80;99.70;;;;;;4963525;28;20049;-71
2022/08/18 12:07:02;;;;;;;2.58;1.00;;;25.70;99.80;;;;;;4964095;28;20130;-71
2022/08/18 12:10:01;;;;;;;2.05;0.60;;;25.60;99.90;;;;;;4966586;28;20137;-72
2022/08/18 12:12:30;;;;;;;2.13;0.57;;;25.40;99.90;;;;;;4962559;28;20110;-71
2022/08/18 12:15:20;;;;;;;1.27;0.75;;;25.30;99.80;;;;;;4964839;28;20046;-68
2022/08/18 12:17:46;;;;;;;1.27;0.52;;;25.10;99.90;;;;;;4979821;28;20045;-72
2022/08/18 12:20:13;;;;;;;1.13;0.70;;;24.90;99.90;;;;;;4965355;28;20039;-71
2022/08/18 12:22:41;;;;;;;1.58;0.75;;;25.00;99.90;;;;;;4965530;28;20639;-70
2022/08/18 12:25:11;;;;;;;2.70;0.82;;;24.90;99.90;;;;;;4963341;28;20724;-72
2022/08/18 12:27:37;;;;;;;1.13;0.57;;;24.90;99.90;;;;;;4965625;28;20065;-71
2022/08/18 12:30:04;;;;;;;1.42;0.50;;;25.00;99.90;;;;;;4965870;28;20039;-71
2022/08/18 12:32:32;;;;;;;1.50;0.70;;;25.10;99.90;;;;;;4967468;28;20133;-72
2022/08/18 12:34:58;;;;;;;2.05;0.50;;;25.20;99.90;;;;;;4968820;28;20039;-71
2022/08/18 12:37:26;;;;;;;0.93;0.30;;;25.40;99.90;;;;;;4968382;28;20043;-71
2022/08/18 12:39:53;;;;;;;1.33;0.50;;;25.60;99.90;;;;;;4962440;28;20234;-71
2022/08/18 12:42:19;;;;;;;1.63;0.57;;;25.70;99.90;;;;;;4960640;28;20121;-72
2022/08/18 12:44:46;;;;;;;1.38;0.40;;;25.80;99.90;;;;;;4963711;28;20046;-73
2022/08/18 12:47:23;;;;;;;1.05;0.63;;;25.80;99.90;;;;;;4967399;28;20057;-74
2022/08/18 12:49:49;;;;;;;0.88;0.50;;;25.80;99.90;;;;;;4961645;28;20066;-72
2022/08/18 12:52:16;;;;;;;0.90;0.63;;;25.80;99.90;;;;;;4960293;28;20065;-72
2022/08/18 12:54:42;;;;;;;2.45;0.47;;;25.80;99.60;;;;;;4962223;28;20034;-71
2022/08/18 12:57:21;;;;;;;2.10;0.95;;;25.80;99.90;;;;;;4994483;28;20023;-70
2022/08/18 12:59:47;;;;;;;1.65;0.60;;;25.80;99.90;;;;;;4961785;28;20126;-71
2022/08/18 13:02:14;;;;;;;0.90;0.60;;;25.80;99.90;;;;;;4964125;28;20114;-71
2022/08/18 13:04:40;;;;;;;3.53;0.70;;;25.80;99.50;;;;;;4961206;28;20047;-72
2022/08/18 13:07:06;;;;;;;0.50;0.50;;;25.70;99.90;;;;;;4959417;28;20039;-69
2022/08/18 13:09:34;;;;;;;1.15;0.40;;;25.60;99.90;;;;;;4962415;28;20049;-72
2022/08/18 13:12:00;;;;;;;1.50;0.40;;;25.60;99.90;;;;;;4964058;28;20038;-70
2022/08/18 13:14:26;;;;;;;1.00;0.40;;;25.60;99.90;;;;;;4960517;28;20448;-72
2022/08/18 13:16:51;;;;;;;0.88;0.40;;;25.70;99.70;;;;;;4965553;28;20408;-69
2022/08/18 13:19:17;;;;;;;0.40;0.30;;;25.80;99.50;;;;;;4962161;28;20093;-70
2022/08/18 13:21:43;;;;;;;0.75;0.30;;;25.80;99.60;;;;;;4962123;28;20117;-73
2022/08/18 13:24:09;;;;;;;0.82;0.30;;;25.70;99.40;;;;;;4962186;28;20202;-71
2022/08/18 13:26:38;;;;;;;2.97;0.30;;;25.70;99.60;;;;;;4965359;28;20045;-72
2022/08/18 13:29:04;;;;;;;1.92;0.47;;;25.60;99.30;;;;;;4964537;28;20124;-72
2022/08/18 13:31:30;;;;;;;1.60;0.30;;;25.60;99.70;;;;;;4962792;28;20109;-72